createdAt,value
2023-01-19T00:00:52.949Z,2.17
2023-01-19T00:03:19.810Z,1.60
2023-01-19T00:05:46.821Z,1.77
2023-01-19T00:08:17.651Z,2.50
2023-01-19T00:10:47.491Z,2.38
2023-01-19T00:13:15.140Z,2.05
2023-01-19T00:15:42.059Z,2.20
2023-01-19T00:18:10.559Z,2.42
2023-01-19T00:20:38.343Z,2.38
2023-01-19T00:23:07.533Z,2.58
2023-01-19T00:25:34.918Z,2.08
2023-01-19T00:28:02.099Z,2.80
2023-01-19T00:30:29.172Z,1.83
2023-01-19T00:32:56.520Z,2.30
2023-01-19T00:35:23.348Z,1.88
2023-01-19T00:37:50.335Z,2.03
2023-01-19T00:40:17.765Z,2.22
2023-01-19T00:42:44.826Z,2.20
2023-01-19T00:45:20.877Z,2.15
2023-01-19T00:47:48.885Z,1.50
2023-01-19T00:50:16.822Z,2.25
2023-01-19T00:52:45.354Z,2.40
2023-01-19T00:55:14.476Z,2.17
2023-01-19T00:57:42.327Z,1.95
2023-01-19T01:00:15.758Z,2.60
2023-01-19T01:02:44.684Z,2.30
2023-01-19T01:05:12.376Z,2.55
2023-01-19T01:07:44.695Z,2.58
2023-01-19T01:10:23.871Z,2.20
2023-01-19T01:12:54.884Z,2.95
2023-01-19T01:15:26.376Z,3.03
2023-01-19T01:17:53.656Z,3.35
2023-01-19T01:20:27.973Z,3.08
2023-01-19T01:22:55.845Z,3.13
2023-01-19T01:25:24.312Z,3.50
2023-01-19T01:27:51.351Z,3.75
2023-01-19T01:30:19.260Z,3.22
2023-01-19T01:32:46.201Z,3.05
2023-01-19T01:35:14.270Z,2.70
2023-01-19T01:37:42.981Z,2.78
2023-01-19T01:40:13.886Z,2.80
2023-01-19T01:42:42.348Z,3.20
2023-01-19T01:45:29.905Z,2.85
2023-01-19T01:48:09.288Z,3.00
2023-01-19T01:51:01.506Z,2.42
2023-01-19T01:53:30.747Z,2.20
2023-01-19T01:55:57.770Z,2.30
2023-01-19T01:58:24.843Z,2.22
2023-01-19T02:01:10.297Z,2.15
2023-01-19T02:03:37.584Z,3.03
2023-01-19T02:06:07.209Z,2.53
2023-01-19T02:09:04.764Z,2.63
2023-01-19T02:11:51.028Z,1.98
2023-01-19T02:14:19.091Z,2.45
2023-01-19T02:16:46.706Z,1.83
2023-01-19T02:19:19.346Z,2.15
2023-01-19T02:22:35.947Z,2.50
2023-01-19T02:25:06.928Z,3.10
2023-01-19T02:27:34.430Z,3.42
2023-01-19T02:30:03.738Z,2.78
2023-01-19T02:32:30.751Z,3.05
2023-01-19T02:34:57.920Z,2.78
2023-01-19T02:37:27.091Z,2.70
2023-01-19T02:40:00.896Z,2.53
2023-01-19T02:42:32.576Z,3.35
2023-01-19T02:44:59.964Z,3.80
2023-01-19T02:47:27.004Z,3.75
2023-01-19T02:50:00.959Z,3.80
2023-01-19T02:52:28.549Z,3.83
2023-01-19T02:54:58.175Z,3.70
2023-01-19T02:57:47.849Z,3.90
2023-01-19T03:00:23.303Z,3.38
2023-01-19T03:05:29.381Z,3.58
2023-01-19T03:08:22.119Z,3.60
2023-01-19T03:11:11.591Z,3.72
2023-01-19T03:14:00.961Z,2.53
2023-01-19T03:16:50.524Z,3.17
2023-01-19T03:19:29.873Z,4.38
2023-01-19T03:22:00.391Z,3.38
2023-01-19T03:24:31.501Z,2.92
2023-01-19T03:27:06.908Z,2.55
2023-01-19T03:32:09.343Z,3.25
2023-01-19T03:34:38.510Z,3.13
2023-01-19T03:37:06.964Z,3.55
2023-01-19T03:39:34.584Z,3.70
2023-01-19T03:42:08.447Z,4.03
2023-01-19T03:44:37.797Z,3.58
2023-01-19T03:47:08.725Z,3.83
2023-01-19T03:49:37.886Z,3.78
2023-01-19T03:52:05.325Z,4.90
2023-01-19T03:54:32.364Z,3.60
2023-01-19T03:56:59.578Z,4.00
2023-01-19T03:59:26.872Z,4.38
2023-01-19T04:01:53.825Z,4.07
2023-01-19T04:04:20.735Z,4.00
2023-01-19T04:06:47.726Z,3.50
2023-01-19T04:09:14.777Z,3.75
2023-01-19T04:11:41.601Z,4.28
2023-01-19T04:14:08.593Z,3.65
2023-01-19T04:16:35.716Z,4.00
2023-01-19T04:19:02.606Z,3.95
2023-01-19T04:21:29.394Z,3.75
2023-01-19T04:23:56.290Z,3.90
2023-01-19T04:26:24.058Z,3.70
2023-01-19T04:28:51.049Z,3.83
2023-01-19T04:31:19.391Z,4.25
2023-01-19T04:33:46.388Z,3.60
2023-01-19T04:36:13.217Z,3.00
2023-01-19T04:38:40.158Z,3.60
2023-01-19T04:41:06.972Z,4.40
2023-01-19T04:43:33.923Z,3.97
2023-01-19T04:46:00.996Z,4.07
2023-01-19T04:48:27.930Z,4.10
2023-01-19T04:50:54.755Z,3.88
2023-01-19T04:53:21.741Z,3.28
2023-01-19T04:55:53.778Z,3.33
2023-01-19T04:58:20.863Z,2.95
2023-01-19T05:00:47.931Z,3.58
2023-01-19T05:03:14.876Z,3.03
2023-01-19T05:05:41.724Z,3.55
2023-01-19T05:08:08.677Z,3.45
2023-01-19T05:10:36.568Z,3.25
2023-01-19T05:13:04.282Z,3.67
2023-01-19T05:15:31.273Z,4.07
2023-01-19T05:17:58.552Z,4.50
2023-01-19T05:20:25.768Z,4.15
2023-01-19T05:22:53.546Z,4.45
2023-01-19T05:25:20.440Z,3.75
2023-01-19T05:27:47.677Z,4.10
2023-01-19T05:30:15.005Z,3.35
2023-01-19T05:32:41.993Z,4.75
2023-01-19T05:35:09.599Z,3.83
2023-01-19T05:37:36.654Z,2.92
2023-01-19T05:40:03.768Z,3.38
2023-01-19T05:42:32.696Z,3.28
2023-01-19T05:44:59.877Z,3.88
2023-01-19T05:47:29.281Z,3.28
2023-01-19T05:49:56.125Z,3.20
2023-01-19T05:52:24.948Z,3.38
2023-01-19T05:54:51.923Z,3.13
2023-01-19T05:57:19.026Z,3.25
2023-01-19T05:59:45.985Z,3.30
2023-01-19T06:02:13.000Z,3.63
2023-01-19T06:04:39.956Z,2.90
2023-01-19T06:07:07.082Z,3.92
2023-01-19T06:09:34.069Z,3.58
2023-01-19T06:12:01.060Z,3.85
2023-01-19T06:14:27.954Z,3.30
2023-01-19T06:16:54.863Z,3.30
2023-01-19T06:19:21.691Z,3.45
2023-01-19T06:21:52.142Z,3.00
2023-01-19T06:24:19.657Z,3.05
2023-01-19T06:26:46.673Z,3.20
2023-01-19T06:29:14.654Z,3.58
2023-01-19T06:31:41.947Z,2.88
2023-01-19T06:34:09.696Z,3.25
2023-01-19T06:36:36.934Z,2.42
2023-01-19T06:39:05.898Z,2.90
2023-01-19T06:41:33.810Z,3.58
2023-01-19T06:44:01.084Z,2.80
2023-01-19T06:46:28.435Z,3.25
2023-01-19T06:48:55.663Z,2.80
2023-01-19T06:51:23.130Z,2.72
2023-01-19T06:53:50.442Z,2.33
2023-01-19T06:56:17.354Z,2.42
2023-01-19T06:58:46.569Z,2.75
2023-01-19T07:01:13.856Z,2.50
2023-01-19T07:03:40.929Z,2.60
2023-01-19T07:06:08.447Z,2.83
2023-01-19T07:08:36.989Z,3.03
2023-01-19T07:11:26.519Z,2.20
2023-01-19T07:13:55.162Z,2.58
2023-01-19T07:16:22.096Z,2.60
2023-01-19T07:18:50.010Z,2.92
2023-01-19T07:21:17.548Z,2.45
2023-01-19T07:23:44.484Z,3.13
2023-01-19T07:26:11.419Z,2.33
2023-01-19T07:28:38.318Z,2.50
2023-01-19T07:31:05.413Z,2.97
2023-01-19T07:33:33.059Z,2.55
2023-01-19T07:35:59.951Z,3.00
2023-01-19T07:38:26.840Z,2.83
2023-01-19T07:41:04.123Z,2.58
2023-01-19T07:43:31.261Z,1.75
2023-01-19T07:45:59.937Z,2.10
2023-01-19T07:48:27.539Z,2.88
2023-01-19T07:50:58.851Z,2.55
2023-01-19T07:53:25.710Z,2.33
2023-01-19T07:55:58.811Z,2.92
2023-01-19T07:58:26.545Z,2.60
2023-01-19T08:00:53.929Z,1.90
2023-01-19T08:03:21.150Z,1.60
2023-01-19T08:05:54.840Z,1.95
2023-01-19T08:08:21.813Z,2.28
2023-01-19T08:10:52.107Z,2.00
2023-01-19T08:13:19.100Z,2.47
2023-01-19T08:15:50.457Z,2.30
2023-01-19T08:18:18.108Z,2.72
2023-01-19T08:20:45.954Z,1.90
2023-01-19T08:23:13.169Z,1.98
2023-01-19T08:25:42.798Z,1.83
2023-01-19T08:28:10.432Z,1.60
2023-01-19T08:30:38.530Z,1.90
2023-01-19T08:33:08.057Z,1.27
2023-01-19T08:35:37.516Z,2.05
2023-01-19T08:38:06.606Z,2.55
2023-01-19T08:40:39.115Z,4.85
2023-01-19T08:43:15.169Z,5.07
2023-01-19T08:45:52.886Z,6.05
2023-01-19T08:48:24.510Z,5.78
2023-01-19T08:50:52.490Z,5.60
2023-01-19T08:53:21.148Z,6.00
2023-01-19T08:55:48.340Z,5.28
2023-01-19T08:58:15.551Z,6.40
2023-01-19T09:00:42.823Z,6.03
2023-01-19T09:03:12.362Z,6.35
2023-01-19T09:05:39.963Z,5.78
2023-01-19T09:08:09.452Z,6.03
2023-01-19T09:10:38.095Z,5.32
2023-01-19T09:13:08.287Z,6.13
2023-01-19T09:15:37.653Z,6.60
2023-01-19T09:18:07.394Z,7.05
2023-01-19T09:20:36.184Z,6.65
2023-01-19T09:23:03.508Z,6.32
2023-01-19T09:25:31.531Z,6.80
2023-01-19T09:28:00.595Z,6.90
2023-01-19T09:30:28.414Z,6.05
2023-01-19T09:32:55.523Z,5.53
2023-01-19T09:35:22.467Z,6.03
2023-01-19T09:37:49.386Z,5.75
2023-01-19T09:40:20.060Z,6.32
2023-01-19T09:43:12.479Z,6.93
2023-01-19T09:46:01.456Z,6.72
2023-01-19T09:48:44.131Z,7.43
2023-01-19T09:51:40.821Z,6.35
2023-01-19T09:54:41.085Z,6.85
2023-01-19T09:57:12.015Z,6.57
2023-01-19T09:59:39.339Z,6.40
2023-01-19T10:02:27.109Z,7.40
2023-01-19T10:05:19.742Z,6.40
2023-01-19T10:08:24.131Z,6.47
2023-01-19T10:10:56.866Z,5.75
2023-01-19T10:13:48.695Z,5.45
2023-01-19T10:16:34.674Z,5.30
2023-01-19T10:19:33.696Z,6.38
2023-01-19T10:22:09.983Z,5.63
2023-01-19T10:24:40.453Z,4.50
2023-01-19T10:27:17.966Z,5.57
2023-01-19T10:29:46.223Z,5.50
2023-01-19T10:32:23.027Z,5.43
2023-01-19T10:34:51.310Z,5.15
2023-01-19T10:37:25.430Z,4.80
2023-01-19T10:39:58.305Z,6.03
2023-01-19T10:42:29.820Z,5.65
2023-01-19T10:44:56.921Z,5.43
2023-01-19T10:47:36.814Z,6.18
2023-01-19T10:50:27.143Z,6.68
2023-01-19T10:52:57.089Z,6.00
2023-01-19T10:55:38.038Z,6.07
2023-01-19T10:58:07.422Z,5.40
2023-01-19T11:00:40.028Z,6.32
2023-01-19T11:03:23.598Z,5.97
2023-01-19T11:05:51.242Z,5.72
2023-01-19T11:08:30.232Z,5.65
2023-01-19T11:11:04.484Z,6.00
2023-01-19T11:13:32.590Z,6.18
2023-01-19T11:16:06.321Z,6.63
2023-01-19T11:18:36.650Z,5.93
2023-01-19T11:21:09.174Z,5.53
2023-01-19T11:23:43.887Z,6.03
2023-01-19T11:26:24.604Z,7.10
2023-01-19T11:28:54.713Z,5.70
2023-01-19T11:31:27.784Z,5.40
2023-01-19T11:34:00.218Z,6.30
2023-01-19T11:36:28.590Z,5.00
2023-01-19T11:38:57.419Z,5.38
2023-01-19T11:41:30.484Z,5.35
2023-01-19T11:44:17.584Z,5.05
2023-01-19T11:46:49.194Z,3.70
2023-01-19T11:49:54.968Z,2.85
2023-01-19T11:52:34.871Z,2.10
2023-01-19T11:55:25.601Z,1.73
2023-01-19T11:57:54.606Z,1.60
2023-01-19T12:00:38.436Z,2.22
2023-01-19T12:03:09.913Z,1.40
2023-01-19T12:05:41.202Z,2.08
2023-01-19T12:08:16.030Z,1.80
2023-01-19T12:10:47.072Z,2.03
2023-01-19T12:13:22.480Z,1.80
2023-01-19T12:15:57.914Z,1.92
2023-01-19T12:20:56.606Z,1.73
2023-01-19T12:23:26.790Z,2.10
2023-01-19T12:26:31.218Z,1.95
2023-01-19T12:29:03.926Z,1.90
2023-01-19T12:31:31.013Z,1.90
2023-01-19T12:34:31.129Z,1.80
2023-01-19T12:37:04.015Z,2.17
2023-01-19T12:39:32.925Z,1.98
2023-01-19T12:42:07.417Z,1.80
2023-01-19T12:44:34.838Z,1.50
2023-01-19T12:47:20.287Z,1.90
2023-01-19T12:49:55.328Z,2.20
2023-01-19T12:52:51.355Z,1.85
2023-01-19T12:55:23.660Z,2.15
2023-01-19T12:58:18.535Z,1.83
2023-01-19T13:00:48.453Z,1.88
2023-01-19T13:03:18.213Z,1.45
2023-01-19T13:05:49.383Z,1.70
2023-01-19T13:08:18.516Z,1.50
2023-01-19T13:11:15.847Z,1.60
2023-01-19T13:13:48.500Z,1.50
2023-01-19T13:16:18.640Z,1.40
2023-01-19T13:19:07.648Z,1.25
2023-01-19T13:21:45.977Z,1.30
2023-01-19T13:24:19.226Z,1.30
2023-01-19T13:26:49.147Z,1.70
2023-01-19T13:29:21.505Z,1.35
2023-01-19T13:31:49.775Z,1.70
2023-01-19T13:34:19.885Z,1.50
2023-01-19T13:36:54.742Z,1.65
2023-01-19T13:39:27.878Z,1.77
2023-01-19T13:41:58.134Z,1.23
2023-01-19T13:44:33.084Z,1.20
2023-01-19T13:47:03.277Z,1.45
2023-01-19T13:49:43.806Z,1.70
2023-01-19T13:52:24.410Z,1.60
2023-01-19T13:55:01.775Z,1.00
2023-01-19T13:57:39.540Z,1.40
2023-01-19T14:00:12.805Z,1.55
2023-01-19T14:02:55.621Z,1.38
2023-01-19T14:05:37.783Z,1.33
2023-01-19T14:08:13.694Z,2.67
2023-01-19T14:10:56.309Z,1.23
2023-01-19T14:13:34.770Z,1.30
2023-01-19T14:16:05.562Z,1.33
2023-01-19T14:18:36.564Z,1.63
2023-01-19T14:21:11.271Z,1.92
2023-01-19T14:24:17.509Z,1.25
2023-01-19T14:26:53.789Z,1.60
2023-01-19T14:29:26.815Z,1.30
2023-01-19T14:32:14.787Z,1.42
2023-01-19T14:34:46.902Z,1.40
2023-01-19T14:37:21.827Z,1.38
2023-01-19T14:40:07.948Z,1.40
2023-01-19T14:42:53.096Z,1.30
2023-01-19T14:45:21.716Z,1.42
2023-01-19T14:47:58.182Z,1.23
2023-01-19T14:50:27.350Z,1.30
2023-01-19T14:53:06.627Z,1.38
2023-01-19T14:55:33.538Z,1.55
2023-01-19T14:58:00.391Z,1.27
2023-01-19T15:00:27.482Z,1.30
2023-01-19T15:02:54.404Z,1.35
2023-01-19T15:05:21.476Z,1.23
2023-01-19T15:07:48.444Z,1.20
2023-01-19T15:10:23.959Z,1.38
2023-01-19T15:15:29.986Z,1.00
2023-01-19T15:17:58.011Z,1.55
2023-01-19T15:20:24.943Z,1.20
2023-01-19T15:22:51.907Z,1.13
2023-01-19T15:25:27.103Z,1.45
2023-01-19T15:27:58.789Z,1.38
2023-01-19T15:30:30.797Z,1.33
2023-01-19T15:32:59.174Z,1.88
2023-01-19T15:35:26.598Z,1.38
2023-01-19T15:37:54.041Z,1.30
2023-01-19T15:40:23.209Z,1.30
2023-01-19T15:42:50.828Z,1.00
2023-01-19T15:45:37.750Z,1.13
2023-01-19T15:48:10.208Z,1.27
2023-01-19T15:50:40.303Z,1.10
2023-01-19T15:53:08.236Z,1.30
2023-01-19T15:55:35.087Z,1.30
2023-01-19T15:58:02.020Z,1.45
2023-01-19T16:00:31.340Z,1.33
2023-01-19T16:02:58.946Z,1.52
2023-01-19T16:05:37.452Z,2.13
2023-01-19T16:08:09.430Z,1.77
2023-01-19T16:10:36.354Z,1.67
2023-01-19T16:13:04.072Z,1.48
2023-01-19T16:15:30.976Z,1.77
2023-01-19T16:17:58.445Z,2.42
2023-01-19T16:20:25.327Z,2.05
2023-01-19T16:22:53.725Z,1.63
2023-01-19T16:25:22.679Z,1.52
2023-01-19T16:27:50.460Z,1.50
2023-01-19T16:30:19.398Z,1.50
2023-01-19T16:32:46.930Z,1.60
2023-01-19T16:35:15.575Z,1.77
2023-01-19T16:37:42.955Z,1.55
2023-01-19T16:40:10.694Z,1.88
2023-01-19T16:42:39.100Z,1.67
2023-01-19T16:45:21.173Z,1.95
2023-01-19T16:47:50.693Z,2.20
2023-01-19T16:50:18.329Z,2.10
2023-01-19T16:52:45.368Z,2.05
2023-01-19T16:55:12.402Z,3.13
2023-01-19T16:57:39.325Z,2.63
2023-01-19T17:00:09.372Z,2.72
2023-01-19T17:02:36.674Z,3.35
2023-01-19T17:05:03.939Z,3.22
2023-01-19T17:07:31.018Z,3.28
2023-01-19T17:09:57.905Z,3.55
2023-01-19T17:12:24.898Z,4.05
2023-01-19T17:14:51.846Z,4.05
2023-01-19T17:17:18.797Z,4.53
2023-01-19T17:19:45.635Z,4.30
2023-01-19T17:22:13.594Z,4.88
2023-01-19T17:24:43.191Z,4.38
2023-01-19T17:27:10.622Z,4.57
2023-01-19T17:29:37.526Z,5.22
2023-01-19T17:32:04.706Z,4.88
2023-01-19T17:34:32.007Z,4.60
2023-01-19T17:37:03.099Z,4.93
2023-01-19T17:39:30.687Z,4.45
2023-01-19T17:41:57.756Z,4.10
2023-01-19T17:44:25.115Z,5.88
2023-01-19T17:46:51.982Z,6.70
2023-01-19T17:49:19.053Z,4.88
2023-01-19T17:51:46.267Z,4.00
2023-01-19T17:54:14.366Z,3.53
2023-01-19T17:56:42.102Z,3.72
2023-01-19T17:59:09.182Z,4.70
2023-01-19T18:01:40.455Z,4.00
2023-01-19T18:04:08.880Z,3.90
2023-01-19T18:06:36.335Z,4.18
2023-01-19T18:09:04.891Z,4.05
2023-01-19T18:11:31.781Z,5.55
2023-01-19T18:14:00.202Z,4.57
2023-01-19T18:16:29.199Z,5.07
2023-01-19T18:18:56.893Z,5.13
2023-01-19T18:21:27.379Z,5.47
2023-01-19T18:24:02.884Z,4.88
2023-01-19T18:28:57.790Z,5.95
2023-01-19T18:31:26.446Z,5.18
2023-01-19T18:33:53.838Z,4.90
2023-01-19T18:36:21.200Z,4.93
2023-01-19T18:38:48.227Z,4.68
2023-01-19T18:41:17.397Z,4.10
2023-01-19T18:43:44.971Z,4.43
2023-01-19T18:46:12.496Z,3.67
2023-01-19T18:48:39.958Z,3.65
2023-01-19T18:51:12.879Z,3.85
2023-01-19T18:53:39.868Z,5.20
2023-01-19T18:56:07.128Z,4.45
2023-01-19T18:58:37.337Z,4.22
2023-01-19T19:01:04.821Z,4.57
2023-01-19T19:03:31.785Z,4.40
2023-01-19T19:06:03.385Z,4.13
2023-01-19T19:08:30.635Z,3.78
2023-01-19T19:10:57.526Z,3.40
2023-01-19T19:13:25.299Z,3.15
2023-01-19T19:15:52.628Z,2.80
2023-01-19T19:18:19.731Z,2.70
2023-01-19T19:20:46.583Z,3.08
2023-01-19T19:23:13.536Z,3.20
2023-01-19T19:25:40.360Z,2.33
2023-01-19T19:28:07.408Z,2.45
2023-01-19T19:30:37.798Z,2.50
2023-01-19T19:33:05.024Z,2.00
2023-01-19T19:35:31.889Z,2.05
2023-01-19T19:37:58.996Z,1.90
2023-01-19T19:40:27.081Z,2.55
2023-01-19T19:42:54.203Z,2.33
2023-01-19T19:45:21.096Z,2.50
2023-01-19T19:47:47.986Z,2.88
2023-01-19T19:50:15.287Z,2.70
2023-01-19T19:52:42.733Z,2.75
2023-01-19T19:55:10.949Z,2.40
2023-01-19T19:57:37.954Z,2.88
2023-01-19T20:00:06.295Z,3.10
2023-01-19T20:02:39.195Z,2.53
2023-01-19T20:05:06.366Z,3.20
2023-01-19T20:07:33.415Z,2.78
2023-01-19T20:10:00.360Z,2.97
2023-01-19T20:12:27.524Z,2.20
2023-01-19T20:14:54.495Z,3.03
2023-01-19T20:17:21.477Z,2.90
2023-01-19T20:19:49.079Z,2.83
2023-01-19T20:22:16.228Z,2.70
2023-01-19T20:24:44.673Z,2.50
2023-01-19T20:27:11.657Z,2.55
2023-01-19T20:29:38.651Z,3.00
2023-01-19T20:32:05.797Z,3.30
2023-01-19T20:34:33.838Z,3.90
2023-01-19T20:37:01.693Z,3.50
2023-01-19T20:39:33.170Z,2.92
2023-01-19T20:42:01.121Z,3.10
2023-01-19T20:44:28.084Z,3.30
2023-01-19T20:46:55.667Z,3.88
2023-01-19T20:49:23.271Z,4.47
2023-01-19T20:51:52.278Z,5.00
2023-01-19T20:54:22.212Z,4.40
2023-01-19T20:56:49.387Z,5.18
2023-01-19T20:59:16.572Z,4.93
2023-01-19T21:01:44.779Z,5.13
2023-01-19T21:04:12.619Z,6.07
2023-01-19T21:06:40.324Z,5.50
2023-01-19T21:09:08.899Z,6.60
2023-01-19T21:11:37.476Z,7.30
2023-01-19T21:14:05.190Z,11.18
2023-01-19T21:16:34.514Z,8.15
2023-01-19T21:19:01.564Z,7.65
2023-01-19T21:21:31.436Z,7.72
2023-01-19T21:24:00.854Z,10.45
2023-01-19T21:26:30.219Z,9.23
2023-01-19T21:28:58.364Z,10.23
2023-01-19T21:31:27.595Z,10.40
2023-01-19T21:33:55.667Z,16.98
2023-01-19T21:36:23.843Z,15.63
2023-01-19T21:38:52.240Z,13.82
2023-01-19T21:41:19.811Z,10.63
2023-01-19T21:43:47.039Z,10.90
2023-01-19T21:46:19.193Z,13.43
2023-01-19T21:48:46.144Z,12.55
2023-01-19T21:51:13.771Z,11.50
2023-01-19T21:53:41.310Z,12.07
2023-01-19T21:56:09.830Z,11.85
2023-01-19T21:58:37.086Z,12.85
2023-01-19T22:01:07.329Z,12.60
2023-01-19T22:03:34.354Z,13.50
2023-01-19T22:06:13.225Z,13.93
2023-01-19T22:08:40.804Z,15.60
2023-01-19T22:11:09.643Z,15.23
2023-01-19T22:13:38.654Z,16.02
2023-01-19T22:16:11.346Z,15.80
2023-01-19T22:18:40.086Z,16.13
2023-01-19T22:21:14.658Z,17.20
2023-01-19T22:23:42.244Z,14.95
2023-01-19T22:26:10.458Z,20.20
2023-01-19T22:28:37.580Z,22.33
2023-01-19T22:31:07.187Z,19.88
2023-01-19T22:33:34.521Z,20.88
2023-01-19T22:36:16.536Z,20.30
2023-01-19T22:38:44.723Z,20.95
2023-01-19T22:41:19.651Z,19.55
2023-01-19T22:43:47.691Z,20.73
2023-01-19T22:46:18.016Z,23.40
2023-01-19T22:48:45.568Z,20.98
2023-01-19T22:51:12.886Z,20.45
2023-01-19T22:53:39.905Z,20.70
2023-01-19T22:56:11.724Z,20.35
2023-01-19T22:58:40.435Z,21.77
2023-01-19T23:01:08.779Z,21.70
2023-01-19T23:03:36.862Z,22.63
2023-01-19T23:06:12.653Z,23.38
2023-01-19T23:08:40.718Z,23.75
2023-01-19T23:11:10.749Z,23.08
2023-01-19T23:13:37.698Z,21.35
2023-01-19T23:16:06.001Z,23.50
2023-01-19T23:18:33.214Z,22.92
2023-01-19T23:21:13.516Z,24.55
2023-01-19T23:23:41.045Z,23.75
2023-01-19T23:26:18.970Z,22.67
2023-01-19T23:28:46.712Z,22.77
2023-01-19T23:31:17.192Z,21.17
2023-01-19T23:33:44.722Z,21.15
2023-01-19T23:36:12.644Z,21.08
2023-01-19T23:38:40.412Z,21.83
2023-01-19T23:41:08.005Z,21.20
2023-01-19T23:43:35.343Z,21.52
2023-01-19T23:46:03.948Z,20.52
2023-01-19T23:48:31.340Z,21.33
2023-01-19T23:50:58.212Z,21.98
2023-01-19T23:53:25.437Z,21.33
2023-01-19T23:55:52.396Z,20.05
2023-01-19T23:58:19.308Z,21.60
